sensor_id;sensor_type;location;lat;lon;timestamp;temperature;humidity
22852;DHT22;11592;45.460;9.240;2023-04-01T00:01:27;12.10;99.90
22852;DHT22;11592;45.460;9.240;2023-04-01T00:03:53;12.10;99.90
22852;DHT22;11592;45.460;9.240;2023-04-01T00:06:21;12.10;99.90
22852;DHT22;11592;45.460;9.240;2023-04-01T00:08:48;12.10;99.90
22852;DHT22;11592;45.460;9.240;2023-04-01T00:11:15;12.20;99.90
22852;DHT22;11592;45.460;9.240;2023-04-01T00:13:43;12.40;99.90
22852;DHT22;11592;45.460;9.240;2023-04-01T00:16:10;12.50;99.90
22852;DHT22;11592;45.460;9.240;2023-04-01T00:18:47;12.40;99.90
22852;DHT22;11592;45.460;9.240;2023-04-01T00:21:15;12.40;99.90
22852;DHT22;11592;45.460;9.240;2023-04-01T00:23:42;12.40;99.90
22852;DHT22;11592;45.460;9.240;2023-04-01T00:26:10;12.50;99.90
22852;DHT22;11592;45.460;9.240;2023-04-01T00:28:39;12.50;99.90
22852;DHT22;11592;45.460;9.240;2023-04-01T00:31:08;12.50;99.90
22852;DHT22;11592;45.460;9.240;2023-04-01T00:33:35;12.40;99.90
22852;DHT22;11592;45.460;9.240;2023-04-01T00:36:10;12.30;99.90
22852;DHT22;11592;45.460;9.240;2023-04-01T00:38:38;12.30;99.90
22852;DHT22;11592;45.460;9.240;2023-04-01T00:41:05;12.30;99.90
22852;DHT22;11592;45.460;9.240;2023-04-01T00:43:33;12.20;99.90
22852;DHT22;11592;45.460;9.240;2023-04-01T00:46:00;12.10;99.90
22852;DHT22;11592;45.460;9.240;2023-04-01T00:48:33;12.00;99.90
22852;DHT22;11592;45.460;9.240;2023-04-01T00:51:05;11.90;99.90
22852;DHT22;11592;45.460;9.240;2023-04-01T00:53:34;11.80;99.90
22852;DHT22;11592;45.460;9.240;2023-04-01T00:56:16;11.70;99.90
22852;DHT22;11592;45.460;9.240;2023-04-01T00:58:47;11.60;99.90
22852;DHT22;11592;45.460;9.240;2023-04-01T01:01:15;11.70;99.90
22852;DHT22;11592;45.460;9.240;2023-04-01T01:03:42;11.70;99.90
22852;DHT22;11592;45.460;9.240;2023-04-01T01:09:25;11.50;99.90
22852;DHT22;11592;45.460;9.240;2023-04-01T01:12:01;11.60;99.90
22852;DHT22;11592;45.460;9.240;2023-04-01T01:23:38;11.50;99.90
22852;DHT22;11592;45.460;9.240;2023-04-01T01:37:04;11.60;99.90
22852;DHT22;11592;45.460;9.240;2023-04-01T01:39:34;11.60;99.90
22852;DHT22;11592;45.460;9.240;2023-04-01T01:42:04;11.40;99.90
22852;DHT22;11592;45.460;9.240;2023-04-01T01:44:33;11.20;99.90
22852;DHT22;11592;45.460;9.240;2023-04-01T01:47:01;11.10;99.90
22852;DHT22;11592;45.460;9.240;2023-04-01T01:49:30;10.90;99.90
22852;DHT22;11592;45.460;9.240;2023-04-01T01:51:58;10.90;99.90
22852;DHT22;11592;45.460;9.240;2023-04-01T01:54:25;10.90;99.90
22852;DHT22;11592;45.460;9.240;2023-04-01T01:56:57;10.80;99.90
22852;DHT22;11592;45.460;9.240;2023-04-01T01:59:28;10.80;99.90
22852;DHT22;11592;45.460;9.240;2023-04-01T02:01:56;10.90;99.90
22852;DHT22;11592;45.460;9.240;2023-04-01T02:04:25;10.90;99.90
22852;DHT22;11592;45.460;9.240;2023-04-01T02:06:58;10.80;99.90
22852;DHT22;11592;45.460;9.240;2023-04-01T02:09:26;10.70;99.90
22852;DHT22;11592;45.460;9.240;2023-04-01T02:11:59;10.70;99.90
22852;DHT22;11592;45.460;9.240;2023-04-01T02:14:47;10.70;99.90
22852;DHT22;11592;45.460;9.240;2023-04-01T02:17:25;10.60;99.90
22852;DHT22;11592;45.460;9.240;2023-04-01T02:19:56;10.70;99.90
22852;DHT22;11592;45.460;9.240;2023-04-01T02:22:26;10.70;99.90
22852;DHT22;11592;45.460;9.240;2023-04-01T02:24:58;10.60;99.90
22852;DHT22;11592;45.460;9.240;2023-04-01T02:27:26;10.60;99.90
22852;DHT22;11592;45.460;9.240;2023-04-01T02:29:53;10.50;99.90
22852;DHT22;11592;45.460;9.240;2023-04-01T02:32:20;10.70;99.90
22852;DHT22;11592;45.460;9.240;2023-04-01T02:34:47;10.90;99.90
22852;DHT22;11592;45.460;9.240;2023-04-01T02:37:15;10.90;99.90
22852;DHT22;11592;45.460;9.240;2023-04-01T02:39:42;10.80;99.90
22852;DHT22;11592;45.460;9.240;2023-04-01T02:42:09;10.90;99.90
22852;DHT22;11592;45.460;9.240;2023-04-01T02:44:37;10.90;99.90
22852;DHT22;11592;45.460;9.240;2023-04-01T02:47:03;10.90;99.90
22852;DHT22;11592;45.460;9.240;2023-04-01T02:49:31;11.00;99.90
22852;DHT22;11592;45.460;9.240;2023-04-01T02:51:57;11.00;99.90
22852;DHT22;11592;45.460;9.240;2023-04-01T02:54:24;10.90;99.90
22852;DHT22;11592;45.460;9.240;2023-04-01T02:56:51;11.00;99.90
22852;DHT22;11592;45.460;9.240;2023-04-01T02:59:18;11.10;99.90
22852;DHT22;11592;45.460;9.240;2023-04-01T03:01:45;11.00;99.90
22852;DHT22;11592;45.460;9.240;2023-04-01T03:04:11;10.80;99.90
22852;DHT22;11592;45.460;9.240;2023-04-01T03:06:38;10.70;99.90
22852;DHT22;11592;45.460;9.240;2023-04-01T03:09:05;10.90;99.90
22852;DHT22;11592;45.460;9.240;2023-04-01T03:11:32;11.00;99.90
22852;DHT22;11592;45.460;9.240;2023-04-01T03:13:59;11.00;99.90
22852;DHT22;11592;45.460;9.240;2023-04-01T03:16:25;11.10;99.90
22852;DHT22;11592;45.460;9.240;2023-04-01T03:18:52;11.10;99.90
22852;DHT22;11592;45.460;9.240;2023-04-01T03:21:22;12.20;99.90
22852;DHT22;11592;45.460;9.240;2023-04-01T03:23:49;11.00;99.90
22852;DHT22;11592;45.460;9.240;2023-04-01T03:26:16;10.90;99.90
22852;DHT22;11592;45.460;9.240;2023-04-01T03:28:43;10.80;99.90
22852;DHT22;11592;45.460;9.240;2023-04-01T03:31:11;10.80;99.90
22852;DHT22;11592;45.460;9.240;2023-04-01T03:33:37;10.80;99.90
22852;DHT22;11592;45.460;9.240;2023-04-01T03:36:04;10.70;99.90
22852;DHT22;11592;45.460;9.240;2023-04-01T03:38:35;10.70;99.90
22852;DHT22;11592;45.460;9.240;2023-04-01T03:41:03;10.70;99.90
22852;DHT22;11592;45.460;9.240;2023-04-01T03:43:30;10.70;99.90
22852;DHT22;11592;45.460;9.240;2023-04-01T03:45:56;10.70;99.90
22852;DHT22;11592;45.460;9.240;2023-04-01T03:48:25;10.60;99.90
22852;DHT22;11592;45.460;9.240;2023-04-01T03:50:52;10.60;99.90
22852;DHT22;11592;45.460;9.240;2023-04-01T03:53:19;10.60;99.90
22852;DHT22;11592;45.460;9.240;2023-04-01T03:55:46;10.70;99.90
22852;DHT22;11592;45.460;9.240;2023-04-01T03:58:13;10.70;99.90
22852;DHT22;11592;45.460;9.240;2023-04-01T04:00:40;10.60;99.90
22852;DHT22;11592;45.460;9.240;2023-04-01T04:03:07;10.60;99.90
22852;DHT22;11592;45.460;9.240;2023-04-01T04:05:34;10.40;99.90
22852;DHT22;11592;45.460;9.240;2023-04-01T04:08:02;10.40;99.90
22852;DHT22;11592;45.460;9.240;2023-04-01T04:10:29;10.20;99.90
22852;DHT22;11592;45.460;9.240;2023-04-01T04:12:56;10.40;99.90
22852;DHT22;11592;45.460;9.240;2023-04-01T04:15:23;10.30;99.90
22852;DHT22;11592;45.460;9.240;2023-04-01T04:17:50;10.30;99.90
22852;DHT22;11592;45.460;9.240;2023-04-01T04:20:17;10.30;99.90
22852;DHT22;11592;45.460;9.240;2023-04-01T04:22:44;10.50;99.90
22852;DHT22;11592;45.460;9.240;2023-04-01T04:25:10;10.60;99.90
22852;DHT22;11592;45.460;9.240;2023-04-01T04:27:37;10.60;99.90
22852;DHT22;11592;45.460;9.240;2023-04-01T04:30:06;10.70;99.90
22852;DHT22;11592;45.460;9.240;2023-04-01T04:32:33;10.70;99.90
22852;DHT22;11592;45.460;9.240;2023-04-01T04:35:00;10.80;99.90
22852;DHT22;11592;45.460;9.240;2023-04-01T04:37:27;10.80;99.90
22852;DHT22;11592;45.460;9.240;2023-04-01T04:39:53;10.80;99.90
22852;DHT22;11592;45.460;9.240;2023-04-01T04:42:20;10.80;99.90
22852;DHT22;11592;45.460;9.240;2023-04-01T04:44:47;10.80;99.90
22852;DHT22;11592;45.460;9.240;2023-04-01T04:47:14;10.90;99.90
22852;DHT22;11592;45.460;9.240;2023-04-01T04:49:41;10.80;99.90
22852;DHT22;11592;45.460;9.240;2023-04-01T04:52:08;10.80;99.90
22852;DHT22;11592;45.460;9.240;2023-04-01T04:54:35;10.80;99.90
22852;DHT22;11592;45.460;9.240;2023-04-01T04:57:01;10.80;99.90
22852;DHT22;11592;45.460;9.240;2023-04-01T04:59:28;10.80;99.90
22852;DHT22;11592;45.460;9.240;2023-04-01T05:01:55;10.70;99.90
22852;DHT22;11592;45.460;9.240;2023-04-01T05:04:22;10.70;99.90
22852;DHT22;11592;45.460;9.240;2023-04-01T05:06:49;10.80;99.90
22852;DHT22;11592;45.460;9.240;2023-04-01T05:09:15;10.70;99.90
22852;DHT22;11592;45.460;9.240;2023-04-01T05:11:42;10.80;99.90
22852;DHT22;11592;45.460;9.240;2023-04-01T05:14:14;10.80;99.90
22852;DHT22;11592;45.460;9.240;2023-04-01T05:16:41;10.80;99.90
22852;DHT22;11592;45.460;9.240;2023-04-01T05:19:08;10.80;99.90
22852;DHT22;11592;45.460;9.240;2023-04-01T05:21:35;10.80;99.90
22852;DHT22;11592;45.460;9.240;2023-04-01T05:24:02;10.80;99.90
22852;DHT22;11592;45.460;9.240;2023-04-01T05:26:28;10.80;99.90
22852;DHT22;11592;45.460;9.240;2023-04-01T05:28:55;10.80;99.90
22852;DHT22;11592;45.460;9.240;2023-04-01T05:31:22;11.20;99.90
22852;DHT22;11592;45.460;9.240;2023-04-01T05:33:50;10.70;99.90
22852;DHT22;11592;45.460;9.240;2023-04-01T05:36:17;10.80;99.90
22852;DHT22;11592;45.460;9.240;2023-04-01T05:38:44;10.80;99.90
22852;DHT22;11592;45.460;9.240;2023-04-01T05:41:13;10.80;99.90
22852;DHT22;11592;45.460;9.240;2023-04-01T05:43:41;10.80;99.90
22852;DHT22;11592;45.460;9.240;2023-04-01T05:46:08;10.50;99.90
22852;DHT22;11592;45.460;9.240;2023-04-01T05:48:35;10.50;99.90
22852;DHT22;11592;45.460;9.240;2023-04-01T05:51:03;10.50;99.90
22852;DHT22;11592;45.460;9.240;2023-04-01T05:53:30;10.60;99.90
22852;DHT22;11592;45.460;9.240;2023-04-01T05:56:01;10.70;99.90
22852;DHT22;11592;45.460;9.240;2023-04-01T05:58:28;10.40;99.90
22852;DHT22;11592;45.460;9.240;2023-04-01T06:01:01;10.30;99.90
22852;DHT22;11592;45.460;9.240;2023-04-01T06:03:36;10.50;99.90
22852;DHT22;11592;45.460;9.240;2023-04-01T06:06:04;10.80;99.90
22852;DHT22;11592;45.460;9.240;2023-04-01T06:08:31;10.90;99.90
22852;DHT22;11592;45.460;9.240;2023-04-01T06:11:04;11.10;99.90
22852;DHT22;11592;45.460;9.240;2023-04-01T06:13:56;11.10;99.90
22852;DHT22;11592;45.460;9.240;2023-04-01T06:50:54;11.90;99.90
22852;DHT22;11592;45.460;9.240;2023-04-01T06:53:53;12.00;99.90
22852;DHT22;11592;45.460;9.240;2023-04-01T06:56:25;11.80;99.90
22852;DHT22;11592;45.460;9.240;2023-04-01T06:59:00;11.90;99.90
22852;DHT22;11592;45.460;9.240;2023-04-01T07:02:05;11.90;99.90
22852;DHT22;11592;45.460;9.240;2023-04-01T07:04:25;12.10;99.90
22852;DHT22;11592;45.460;9.240;2023-04-01T07:06:57;12.30;99.90
22852;DHT22;11592;45.460;9.240;2023-04-01T07:09:32;12.30;99.90
22852;DHT22;11592;45.460;9.240;2023-04-01T07:12:19;12.50;99.90
22852;DHT22;11592;45.460;9.240;2023-04-01T07:14:51;12.60;99.90
22852;DHT22;11592;45.460;9.240;2023-04-01T07:17:23;12.70;99.90
22852;DHT22;11592;45.460;9.240;2023-04-01T07:20:08;12.80;99.90
22852;DHT22;11592;45.460;9.240;2023-04-01T07:22:43;12.80;99.90
22852;DHT22;11592;45.460;9.240;2023-04-01T07:25:35;12.80;99.90
22852;DHT22;11592;45.460;9.240;2023-04-01T07:28:03;12.80;99.90
22852;DHT22;11592;45.460;9.240;2023-04-01T07:30:52;12.70;99.90
22852;DHT22;11592;45.460;9.240;2023-04-01T07:39:51;12.70;99.90
22852;DHT22;11592;45.460;9.240;2023-04-01T07:45:30;12.60;99.90
22852;DHT22;11592;45.460;9.240;2023-04-01T07:50:52;12.90;99.90
22852;DHT22;11592;45.460;9.240;2023-04-01T07:53:38;13.00;99.90
22852;DHT22;11592;45.460;9.240;2023-04-01T08:07:21;13.70;99.90
22852;DHT22;11592;45.460;9.240;2023-04-01T08:10:11;13.90;99.90
22852;DHT22;11592;45.460;9.240;2023-04-01T08:18:33;13.90;99.90
22852;DHT22;11592;45.460;9.240;2023-04-01T08:21:21;13.80;99.90
22852;DHT22;11592;45.460;9.240;2023-04-01T08:23:52;13.80;99.90
22852;DHT22;11592;45.460;9.240;2023-04-01T08:26:45;13.90;99.90
22852;DHT22;11592;45.460;9.240;2023-04-01T08:29:26;14.00;99.90
22852;DHT22;11592;45.460;9.240;2023-04-01T08:32:05;14.00;99.90
22852;DHT22;11592;45.460;9.240;2023-04-01T08:34:40;14.00;99.90
22852;DHT22;11592;45.460;9.240;2023-04-01T08:37:15;14.00;99.90
22852;DHT22;11592;45.460;9.240;2023-04-01T08:39:54;14.20;99.90
22852;DHT22;11592;45.460;9.240;2023-04-01T08:45:23;14.50;99.90
22852;DHT22;11592;45.460;9.240;2023-04-01T08:50:43;14.50;99.90
22852;DHT22;11592;45.460;9.240;2023-04-01T08:56:17;14.60;99.90
22852;DHT22;11592;45.460;9.240;2023-04-01T09:15:29;15.20;99.90
22852;DHT22;11592;45.460;9.240;2023-04-01T09:40:34;15.80;99.90
22852;DHT22;11592;45.460;9.240;2023-04-01T09:43:28;16.00;99.90
22852;DHT22;11592;45.460;9.240;2023-04-01T09:54:13;16.40;99.90
22852;DHT22;11592;45.460;9.240;2023-04-01T09:56:52;16.60;99.90
22852;DHT22;11592;45.460;9.240;2023-04-01T10:08:45;16.80;99.90
22852;DHT22;11592;45.460;9.240;2023-04-01T10:28:18;17.40;99.90
22852;DHT22;11592;45.460;9.240;2023-04-01T10:30:57;17.60;99.90
22852;DHT22;11592;45.460;9.240;2023-04-01T10:37:02;17.90;99.90
22852;DHT22;11592;45.460;9.240;2023-04-01T10:40:02;18.00;99.90
22852;DHT22;11592;45.460;9.240;2023-04-01T10:43:05;18.30;99.90
22852;DHT22;11592;45.460;9.240;2023-04-01T10:45:53;18.40;99.50
22852;DHT22;11592;45.460;9.240;2023-04-01T11:11:37;20.20;93.80
22852;DHT22;11592;45.460;9.240;2023-04-01T11:25:29;20.90;82.70
22852;DHT22;11592;45.460;9.240;2023-04-01T11:33:36;21.40;78.00
22852;DHT22;11592;45.460;9.240;2023-04-01T11:36:11;21.70;76.90
22852;DHT22;11592;45.460;9.240;2023-04-01T11:44:25;22.20;78.50
22852;DHT22;11592;45.460;9.240;2023-04-01T11:50:18;22.80;72.10
22852;DHT22;11592;45.460;9.240;2023-04-01T12:01:40;23.50;62.20
22852;DHT22;11592;45.460;9.240;2023-04-01T12:12:41;24.70;57.80
22852;DHT22;11592;45.460;9.240;2023-04-01T12:18:29;25.00;52.40
22852;DHT22;11592;45.460;9.240;2023-04-01T12:29:48;25.80;44.40
22852;DHT22;11592;45.460;9.240;2023-04-01T12:38:21;29.20;38.80
22852;DHT22;11592;45.460;9.240;2023-04-01T12:41:09;30.70;35.50
22852;DHT22;11592;45.460;9.240;2023-04-01T12:49:34;32.30;29.00
22852;DHT22;11592;45.460;9.240;2023-04-01T12:52:14;31.40;31.10
22852;DHT22;11592;45.460;9.240;2023-04-01T12:58:00;36.80;25.70
22852;DHT22;11592;45.460;9.240;2023-04-01T13:11:52;39.10;22.30
22852;DHT22;11592;45.460;9.240;2023-04-01T13:19:41;39.10;21.00
22852;DHT22;11592;45.460;9.240;2023-04-01T13:25:06;35.10;21.90
22852;DHT22;11592;45.460;9.240;2023-04-01T13:27:42;33.80;22.00
22852;DHT22;11592;45.460;9.240;2023-04-01T13:33:27;36.20;22.10
22852;DHT22;11592;45.460;9.240;2023-04-01T13:44:56;39.00;20.00
22852;DHT22;11592;45.460;9.240;2023-04-01T13:50:26;39.50;19.30
22852;DHT22;11592;45.460;9.240;2023-04-01T13:59:18;40.70;19.00
22852;DHT22;11592;45.460;9.240;2023-04-01T14:10:50;33.30;21.30
22852;DHT22;11592;45.460;9.240;2023-04-01T14:23:11;26.10;27.20
22852;DHT22;11592;45.460;9.240;2023-04-01T14:31:18;24.70;26.20
22852;DHT22;11592;45.460;9.240;2023-04-01T14:41:53;23.90;27.10
22852;DHT22;11592;45.460;9.240;2023-04-01T14:50:22;23.80;27.10
22852;DHT22;11592;45.460;9.240;2023-04-01T14:58:16;23.80;28.40
22852;DHT22;11592;45.460;9.240;2023-04-01T15:00:58;23.80;28.40
22852;DHT22;11592;45.460;9.240;2023-04-01T15:03:34;23.90;27.80
22852;DHT22;11592;45.460;9.240;2023-04-01T15:09:13;23.90;28.20
22852;DHT22;11592;45.460;9.240;2023-04-01T15:12:13;23.70;27.80
22852;DHT22;11592;45.460;9.240;2023-04-01T15:17:52;23.30;27.90
22852;DHT22;11592;45.460;9.240;2023-04-01T15:31:15;23.30;28.30
22852;DHT22;11592;45.460;9.240;2023-04-01T15:39:18;29.50;24.60
22852;DHT22;11592;45.460;9.240;2023-04-01T15:47:01;30.20;23.50
22852;DHT22;11592;45.460;9.240;2023-04-01T15:49:41;31.80;24.00
22852;DHT22;11592;45.460;9.240;2023-04-01T16:00:30;30.70;22.60
22852;DHT22;11592;45.460;9.240;2023-04-01T16:19:37;34.30;21.60
22852;DHT22;11592;45.460;9.240;2023-04-01T16:22:20;33.70;20.40
22852;DHT22;11592;45.460;9.240;2023-04-01T16:28:25;31.50;21.30
22852;DHT22;11592;45.460;9.240;2023-04-01T16:31:04;30.40;23.60
22852;DHT22;11592;45.460;9.240;2023-04-01T16:36:30;27.10;25.30
22852;DHT22;11592;45.460;9.240;2023-04-01T16:44:59;24.10;27.00
22852;DHT22;11592;45.460;9.240;2023-04-01T16:47:35;23.70;30.00
22852;DHT22;11592;45.460;9.240;2023-04-01T16:50:22;23.40;30.10
22852;DHT22;11592;45.460;9.240;2023-04-01T16:53:07;23.20;29.60
22852;DHT22;11592;45.460;9.240;2023-04-01T16:55:57;22.80;28.20
22852;DHT22;11592;45.460;9.240;2023-04-01T16:59:01;22.60;28.30
22852;DHT22;11592;45.460;9.240;2023-04-01T17:01:49;22.50;28.80
22852;DHT22;11592;45.460;9.240;2023-04-01T17:07:10;22.00;28.90
22852;DHT22;11592;45.460;9.240;2023-04-01T17:12:30;21.60;29.20
22852;DHT22;11592;45.460;9.240;2023-04-01T17:21:09;21.50;29.60
22852;DHT22;11592;45.460;9.240;2023-04-01T17:23:53;21.30;29.70
22852;DHT22;11592;45.460;9.240;2023-04-01T17:26:37;21.10;30.00
22852;DHT22;11592;45.460;9.240;2023-04-01T17:29:31;21.10;30.10
22852;DHT22;11592;45.460;9.240;2023-04-01T17:34:46;20.90;30.00
22852;DHT22;11592;45.460;9.240;2023-04-01T17:43:12;21.10;31.10
22852;DHT22;11592;45.460;9.240;2023-04-01T17:45:54;21.00;33.20
22852;DHT22;11592;45.460;9.240;2023-04-01T17:48:45;20.90;34.40
22852;DHT22;11592;45.460;9.240;2023-04-01T18:03:42;20.20;38.40
22852;DHT22;11592;45.460;9.240;2023-04-01T18:06:55;20.20;37.60
22852;DHT22;11592;45.460;9.240;2023-04-01T18:15:19;19.80;38.50
22852;DHT22;11592;45.460;9.240;2023-04-01T18:18:10;19.70;39.80
22852;DHT22;11592;45.460;9.240;2023-04-01T18:24:00;19.50;40.40
22852;DHT22;11592;45.460;9.240;2023-04-01T18:26:34;19.40;41.90
22852;DHT22;11592;45.460;9.240;2023-04-01T18:29:32;19.30;39.80
22852;DHT22;11592;45.460;9.240;2023-04-01T18:32:35;19.20;40.90
22852;DHT22;11592;45.460;9.240;2023-04-01T18:35:17;19.10;40.90
22852;DHT22;11592;45.460;9.240;2023-04-01T18:43:38;19.00;42.80
22852;DHT22;11592;45.460;9.240;2023-04-01T18:46:24;18.90;42.50
22852;DHT22;11592;45.460;9.240;2023-04-01T18:49:13;18.90;43.00
22852;DHT22;11592;45.460;9.240;2023-04-01T18:51:51;18.80;43.30
22852;DHT22;11592;45.460;9.240;2023-04-01T18:54:30;18.70;44.20
22852;DHT22;11592;45.460;9.240;2023-04-01T18:57:12;18.70;44.20
22852;DHT22;11592;45.460;9.240;2023-04-01T18:59:44;18.60;43.50
22852;DHT22;11592;45.460;9.240;2023-04-01T19:04:47;18.70;44.10
22852;DHT22;11592;45.460;9.240;2023-04-01T19:07:40;18.60;44.10
22852;DHT22;11592;45.460;9.240;2023-04-01T19:13:10;18.60;44.40
22852;DHT22;11592;45.460;9.240;2023-04-01T19:15:53;18.50;44.30
22852;DHT22;11592;45.460;9.240;2023-04-01T19:21:47;18.40;47.80
22852;DHT22;11592;45.460;9.240;2023-04-01T19:26:56;18.40;49.00
22852;DHT22;11592;45.460;9.240;2023-04-01T19:35:19;18.20;46.90
22852;DHT22;11592;45.460;9.240;2023-04-01T19:38:14;18.20;48.30
22852;DHT22;11592;45.460;9.240;2023-04-01T19:40:51;18.10;50.20
22852;DHT22;11592;45.460;9.240;2023-04-01T19:43:36;18.00;50.20
22852;DHT22;11592;45.460;9.240;2023-04-01T19:52:04;18.00;51.60
22852;DHT22;11592;45.460;9.240;2023-04-01T20:00:01;17.90;52.10
22852;DHT22;11592;45.460;9.240;2023-04-01T20:11:18;18.00;50.40
22852;DHT22;11592;45.460;9.240;2023-04-01T20:14:09;18.10;49.40
22852;DHT22;11592;45.460;9.240;2023-04-01T20:16:55;18.10;50.60
22852;DHT22;11592;45.460;9.240;2023-04-01T20:22:24;18.10;47.30
22852;DHT22;11592;45.460;9.240;2023-04-01T20:24:59;17.90;45.60
22852;DHT22;11592;45.460;9.240;2023-04-01T20:27:33;17.80;46.20
22852;DHT22;11592;45.460;9.240;2023-04-01T20:44:08;17.90;47.80
22852;DHT22;11592;45.460;9.240;2023-04-01T20:46:45;17.80;47.90
22852;DHT22;11592;45.460;9.240;2023-04-01T21:03:00;17.60;48.70
22852;DHT22;11592;45.460;9.240;2023-04-01T21:26:04;17.10;46.60
22852;DHT22;11592;45.460;9.240;2023-04-01T21:28:49;17.10;45.70
22852;DHT22;11592;45.460;9.240;2023-04-01T21:31:21;17.20;45.70
22852;DHT22;11592;45.460;9.240;2023-04-01T21:39:54;17.30;44.80
22852;DHT22;11592;45.460;9.240;2023-04-01T21:47:59;17.00;44.70
22852;DHT22;11592;45.460;9.240;2023-04-01T21:50:47;16.90;44.70
22852;DHT22;11592;45.460;9.240;2023-04-01T22:02:21;16.80;45.00
22852;DHT22;11592;45.460;9.240;2023-04-01T22:07:24;16.90;45.50
22852;DHT22;11592;45.460;9.240;2023-04-01T22:12:43;16.80;46.40
22852;DHT22;11592;45.460;9.240;2023-04-01T22:18:31;16.60;46.80
22852;DHT22;11592;45.460;9.240;2023-04-01T22:30:06;16.50;46.90
22852;DHT22;11592;45.460;9.240;2023-04-01T22:32:17;16.40;46.90
22852;DHT22;11592;45.460;9.240;2023-04-01T22:37:50;16.40;46.60
22852;DHT22;11592;45.460;9.240;2023-04-01T22:40:31;16.30;46.70
22852;DHT22;11592;45.460;9.240;2023-04-01T22:43:06;16.20;46.70
22852;DHT22;11592;45.460;9.240;2023-04-01T22:48:54;16.10;46.90
22852;DHT22;11592;45.460;9.240;2023-04-01T22:54:45;16.20;47.20
22852;DHT22;11592;45.460;9.240;2023-04-01T22:59:57;16.30;47.20
22852;DHT22;11592;45.460;9.240;2023-04-01T23:02:36;16.10;47.40
22852;DHT22;11592;45.460;9.240;2023-04-01T23:05:05;16.10;47.80
22852;DHT22;11592;45.460;9.240;2023-04-01T23:07:57;16.20;47.70
22852;DHT22;11592;45.460;9.240;2023-04-01T23:10:42;16.20;48.40
22852;DHT22;11592;45.460;9.240;2023-04-01T23:13:18;16.20;48.90
22852;DHT22;11592;45.460;9.240;2023-04-01T23:15:46;16.20;50.30
22852;DHT22;11592;45.460;9.240;2023-04-01T23:21:13;15.90;50.50
22852;DHT22;11592;45.460;9.240;2023-04-01T23:28:59;15.70;51.70
22852;DHT22;11592;45.460;9.240;2023-04-01T23:31:31;15.60;52.70
22852;DHT22;11592;45.460;9.240;2023-04-01T23:34:22;15.60;53.40
22852;DHT22;11592;45.460;9.240;2023-04-01T23:36:53;15.50;54.30
22852;DHT22;11592;45.460;9.240;2023-04-01T23:39:25;15.50;54.30
22852;DHT22;11592;45.460;9.240;2023-04-01T23:42:04;15.50;54.60
22852;DHT22;11592;45.460;9.240;2023-04-01T23:44:33;15.30;55.10
22852;DHT22;11592;45.460;9.240;2023-04-01T23:47:02;15.30;55.80
22852;DHT22;11592;45.460;9.240;2023-04-01T23:49:36;15.20;55.70
22852;DHT22;11592;45.460;9.240;2023-04-01T23:52:21;15.20;56.60
22852;DHT22;11592;45.460;9.240;2023-04-01T23:55:02;15.10;57.40
22852;DHT22;11592;45.460;9.240;2023-04-01T23:57:32;15.10;56.70
